Time;durP1;ratioP1;P1;durP2;ratioP2;P2;SDS_P1;SDS_P2;PMS_P1;PMS_P2;Temp;Humidity;BMP_temperature;BMP_pressure;BME280_temperature;BME280_humidity;BME280_pressure;Samples;Min_cycle;Max_cycle;Signal;HPM_P1;HPM_P2
2021/03/17 00:00:39;;;;;;;5.35;2.85;;;;;;;22.21;45.51;99017.10;1670526;84;21224;-59
2021/03/17 00:03:07;;;;;;;4.78;2.87;;;;;;;22.20;45.50;99015.49;1670840;84;21679;-59
2021/03/17 00:05:36;;;;;;;4.67;2.83;;;;;;;22.20;45.46;99014.69;1671346;84;21212;-59
2021/03/17 00:08:03;;;;;;;3.85;2.47;;;;;;;22.18;45.43;99016.47;1648445;85;21274;-60
2021/03/17 00:10:33;;;;;;;3.75;2.27;;;;;;;22.15;45.42;99019.19;1644941;85;21615;-59
2021/03/17 00:13:00;;;;;;;4.65;2.77;;;;;;;22.14;45.45;99017.58;1645173;85;21531;-60
2021/03/17 00:15:31;;;;;;;4.17;2.75;;;;;;;22.15;45.42;99016.41;1645301;85;21252;-60
2021/03/17 00:17:57;;;;;;;5.37;2.83;;;;;;;22.14;45.39;99012.84;1618451;87;21764;-60
2021/03/17 00:20:25;;;;;;;4.15;2.60;;;;;;;22.12;45.35;99011.59;1669747;84;21210;-60
2021/03/17 00:22:52;;;;;;;5.00;2.77;;;;;;;22.10;45.33;99016.72;1671854;84;21218;-60
2021/03/17 00:25:27;;;;;;;3.80;2.37;;;;;;;22.06;45.34;99014.48;1670683;84;22599;-60
2021/03/17 00:27:54;;;;;;;4.33;2.90;;;;;;;22.06;45.36;99006.97;1652982;85;21181;-59
2021/03/17 00:30:21;;;;;;;4.00;2.85;;;;;;;22.08;45.32;99007.97;1649529;85;21212;-60
2021/03/17 00:32:48;;;;;;;4.08;2.92;;;;;;;22.07;45.29;99003.01;1653023;85;21239;-59
2021/03/17 00:35:14;;;;;;;6.12;2.90;;;;;;;22.06;45.24;99007.55;1656180;85;21272;-60
2021/03/17 00:37:41;;;;;;;4.50;3.20;;;;;;;22.03;45.22;99008.27;1671480;84;21213;-60
2021/03/17 00:40:09;;;;;;;3.85;2.60;;;;;;;22.00;45.25;99002.91;1673428;84;21752;-60
2021/03/17 00:42:35;;;;;;;3.70;2.72;;;;;;;22.00;45.23;99011.20;1648082;85;21221;-60
2021/03/17 00:45:03;;;;;;;4.10;2.60;;;;;;;22.00;45.23;99007.05;1670070;84;21275;-59
2021/03/17 00:47:29;;;;;;;4.45;2.87;;;;;;;22.01;45.19;98998.17;1652790;85;21270;-60
2021/03/17 00:49:56;;;;;;;3.58;2.47;;;;;;;21.98;45.16;98994.77;1638132;85;22746;-60
2021/03/17 00:52:23;;;;;;;3.87;2.52;;;;;;;21.94;45.14;98991.14;1619808;87;21636;-60
2021/03/17 00:54:51;;;;;;;4.10;2.77;;;;;;;21.92;45.17;98992.05;1671787;84;21636;-60
2021/03/17 00:57:17;;;;;;;3.77;2.50;;;;;;;21.92;45.14;98988.72;1644526;85;21578;-59
2021/03/17 00:59:44;;;;;;;4.28;2.92;;;;;;;21.92;45.12;98981.80;1640012;85;21636;-60
2021/03/17 01:02:11;;;;;;;3.90;2.67;;;;;;;21.93;45.10;98983.99;1638257;85;21227;-59
2021/03/17 01:04:37;;;;;;;3.58;2.62;;;;;;;21.92;45.05;98987.34;1646706;85;21236;-59
2021/03/17 01:07:04;;;;;;;4.12;2.87;;;;;;;21.88;45.03;98985.06;1647138;85;21203;-60
2021/03/17 01:09:30;;;;;;;4.00;2.77;;;;;;;21.86;45.05;98987.39;1647660;85;21251;-59
2021/03/17 01:11:57;;;;;;;3.50;2.62;;;;;;;21.85;45.05;98987.97;1648100;85;21650;-60
2021/03/17 01:14:23;;;;;;;3.87;3.08;;;;;;;21.86;45.07;98986.81;1644876;85;22336;-59
2021/03/17 01:16:52;;;;;;;3.42;2.45;;;;;;;21.86;45.00;98982.66;1644995;85;21241;-59
2021/03/17 01:19:18;;;;;;;3.87;2.60;;;;;;;21.84;44.97;98979.48;1657935;85;21763;-59
2021/03/17 01:21:45;;;;;;;4.15;2.65;;;;;;;21.81;44.95;98984.34;1672169;84;21245;-59
2021/03/17 01:24:11;;;;;;;3.02;2.55;;;;;;;21.80;44.97;98983.35;1671056;84;21652;-59
2021/03/17 01:26:38;;;;;;;3.80;2.42;;;;;;;21.80;44.97;98979.20;1672258;84;21218;-58
2021/03/17 01:29:05;;;;;;;4.00;2.55;;;;;;;21.81;44.97;98976.04;1673219;84;21230;-59
2021/03/17 01:31:32;;;;;;;3.77;2.40;;;;;;;21.81;44.95;98971.89;1647406;85;21203;-59
2021/03/17 01:33:58;;;;;;;4.92;3.10;;;;;;;21.80;44.89;98978.62;1671633;84;21582;-59
2021/03/17 01:36:25;;;;;;;5.20;3.08;;;;;;;21.78;44.85;98969.06;1671414;84;21146;-59
2021/03/17 01:38:51;;;;;;;3.47;2.47;;;;;;;21.75;44.83;98975.34;1649656;85;21593;-59
2021/03/17 01:41:18;;;;;;;3.45;2.40;;;;;;;21.74;44.87;98974.55;1657878;85;21185;-59
2021/03/17 01:43:44;;;;;;;4.10;2.80;;;;;;;21.75;44.86;98973.96;1672480;84;21166;-59
2021/03/17 01:46:11;;;;;;;4.30;2.80;;;;;;;21.77;44.85;98967.45;1672888;84;21209;-60
2021/03/17 01:48:38;;;;;;;3.98;3.00;;;;;;;21.76;44.79;98965.88;1675200;84;21211;-59
2021/03/17 01:51:05;;;;;;;5.87;3.10;;;;;;;21.73;44.75;98972.94;1666918;84;21452;-59
2021/03/17 01:53:37;;;;;;;4.50;2.77;;;;;;;21.70;44.75;98969.53;1671758;84;21144;-59
2021/03/17 01:56:05;;;;;;;3.75;2.87;;;;;;;21.68;44.76;98969.70;1641350;85;21213;-59
2021/03/17 01:58:32;;;;;;;3.40;2.60;;;;;;;21.71;44.78;98968.95;1658451;85;21165;-58
2021/03/17 02:00:58;;;;;;;2.98;2.67;;;;;;;21.71;44.72;98976.67;1664691;85;21216;-58
2021/03/17 02:03:26;;;;;;;3.42;2.62;;;;;;;21.71;44.71;98973.10;1648751;85;22101;-58
2021/03/17 02:06:04;;;;;;;4.03;2.83;;;;;;;21.68;44.67;98970.50;1666471;84;21098;-58
2021/03/17 02:08:38;;;;;;;2.27;2.00;;;;;;;21.66;44.67;98973.41;1674674;85;21185;-58
2021/03/17 02:11:04;;;;;;;3.98;2.52;;;;;;;21.64;44.68;98968.22;1695728;84;21165;-58
2021/03/17 02:14:08;;;;;;;4.58;2.80;;;;;;;21.64;44.67;98968.84;1692335;84;21208;-59
2021/03/17 02:16:42;;;;;;;3.92;2.77;;;;;;;21.66;44.66;98963.72;1694381;84;21307;-59
2021/03/17 02:20:00;;;;;;;4.95;2.95;;;;;;;21.65;44.62;98960.73;1690486;84;21307;-59
2021/03/17 02:22:35;;;;;;;5.00;3.40;;;;;;;21.61;44.58;98966.20;1693662;84;21220;-58
2021/03/17 02:25:13;;;;;;;2.92;2.25;;;;;;;21.56;44.57;98962.35;1696700;84;21172;-59
2021/03/17 02:28:10;;;;;;;3.70;2.70;;;;;;;21.55;44.59;98962.16;1640960;84;21244;-58
2021/03/17 02:31:12;;;;;;;4.58;3.17;;;;;;;21.56;44.60;98966.50;1689093;84;21229;-58
2021/03/17 02:34:15;;;;;;;3.33;2.58;;;;;;;21.55;44.59;98963.55;1680142;84;21244;-59
2021/03/17 02:36:46;;;;;;;4.55;3.05;;;;;;;21.53;44.52;98958.95;1688504;84;21172;-59
2021/03/17 02:39:36;;;;;;;3.95;2.72;;;;;;;21.47;44.50;98964.58;1694335;84;21145;-59
2021/03/17 02:42:23;;;;;;;3.92;2.92;;;;;;;21.46;44.52;98959.41;1698907;84;21227;-59
2021/03/17 02:44:52;;;;;;;4.72;3.27;;;;;;;21.46;44.56;98958.02;1693490;84;21248;-58
2021/03/17 02:47:19;;;;;;;4.17;2.80;;;;;;;21.47;44.55;98958.25;1698527;84;21475;-58
2021/03/17 02:49:47;;;;;;;3.95;3.20;;;;;;;21.45;44.54;98953.07;1685495;84;21226;-58
2021/03/17 02:52:13;;;;;;;3.52;2.85;;;;;;;21.43;44.54;98952.05;1692164;84;21232;-58
2021/03/17 02:54:44;;;;;;;4.20;2.95;;;;;;;21.41;44.57;98956.36;1697794;84;21616;-58
2021/03/17 02:57:20;;;;;;;4.22;3.10;;;;;;;21.41;44.58;98953.59;1679116;84;21405;-58
2021/03/17 02:59:55;;;;;;;4.62;3.10;;;;;;;21.46;44.60;98956.64;1692652;84;21097;-58
2021/03/17 03:02:22;;;;;;;3.80;3.08;;;;;;;21.52;44.56;98953.77;1698975;84;21184;-56
2021/03/17 03:04:52;;;;;;;5.08;3.10;;;;;;;21.55;44.50;98955.24;1697197;84;21205;-58
2021/03/17 03:07:19;;;;;;;5.30;3.20;;;;;;;21.59;44.44;98954.72;1695861;84;21271;-59
2021/03/17 03:09:46;;;;;;;4.42;3.15;;;;;;;21.60;44.40;98955.52;1694413;84;22180;-59
2021/03/17 03:12:12;;;;;;;3.85;2.75;;;;;;;21.63;44.39;98959.73;1698171;84;21164;-59
2021/03/17 03:14:39;;;;;;;4.17;2.92;;;;;;;21.67;44.36;98957.82;1675857;84;21259;-59
2021/03/17 03:17:05;;;;;;;3.92;2.77;;;;;;;21.71;44.31;98953.73;1698722;84;21493;-58
2021/03/17 03:19:37;;;;;;;4.58;3.08;;;;;;;21.74;44.25;98949.63;1691321;84;21252;-59
2021/03/17 03:22:04;;;;;;;4.25;2.92;;;;;;;21.76;44.19;98953.42;1688619;84;21565;-59
2021/03/17 03:24:31;;;;;;;3.85;2.75;;;;;;;21.76;44.17;98954.23;1691763;84;21145;-59
2021/03/17 03:26:58;;;;;;;3.33;2.70;;;;;;;21.78;44.13;98954.64;1680889;84;21177;-59
2021/03/17 03:29:25;;;;;;;4.67;3.08;;;;;;;21.81;44.10;98953.89;1693938;84;21197;-59
2021/03/17 03:31:52;;;;;;;4.65;3.12;;;;;;;21.85;44.06;98953.98;1694965;84;21645;-59
2021/03/17 03:34:19;;;;;;;4.55;2.98;;;;;;;21.85;44.04;98956.13;1697304;84;21544;-59
2021/03/17 03:36:45;;;;;;;4.58;3.17;;;;;;;21.86;44.00;98961.89;1693665;84;21648;-59
2021/03/17 03:39:13;;;;;;;3.83;2.85;;;;;;;21.86;43.97;98957.74;1699071;84;21169;-59
2021/03/17 03:41:40;;;;;;;4.90;2.75;;;;;;;21.88;43.98;98956.00;1692812;84;21263;-61
2021/03/17 03:44:07;;;;;;;4.28;3.08;;;;;;;21.91;43.93;98951.09;1697664;83;21149;-61
2021/03/17 03:46:34;;;;;;;4.97;3.02;;;;;;;21.96;43.91;98959.13;1696647;84;21265;-60
2021/03/17 03:49:02;;;;;;;4.67;3.27;;;;;;;21.99;43.84;98952.84;1697423;84;21137;-60
2021/03/17 03:51:31;;;;;;;3.72;2.87;;;;;;;21.99;43.80;98956.99;1696974;84;21141;-60
2021/03/17 03:54:43;;;;;;;4.30;2.95;;;;;;;21.99;43.78;98962.53;1690220;84;21246;-60
2021/03/17 03:57:25;;;;;;;4.22;2.90;;;;;;;22.00;43.79;98960.56;1693008;84;21643;-60
2021/03/17 03:59:55;;;;;;;4.85;3.40;;;;;;;22.05;43.76;98963.02;1695100;84;21420;-60
2021/03/17 04:02:24;;;;;;;4.35;3.02;;;;;;;22.05;43.75;98969.36;1690277;84;21046;-60
2021/03/17 04:04:50;;;;;;;4.92;3.83;;;;;;;22.07;43.69;98955.13;1694343;84;21165;-60
2021/03/17 04:07:17;;;;;;;5.40;3.58;;;;;;;22.07;43.65;98955.13;1672880;85;21233;-61
2021/03/17 04:09:47;;;;;;;4.72;3.20;;;;;;;22.06;43.68;98954.36;1676624;85;21170;-60
2021/03/17 04:12:14;;;;;;;5.30;3.02;;;;;;;22.08;43.69;98957.53;1659193;86;21269;-59
2021/03/17 04:14:44;;;;;;;4.92;3.62;;;;;;;22.12;43.69;98959.77;1672082;85;21141;-60
2021/03/17 04:17:32;;;;;;;4.53;3.35;;;;;;;22.15;43.65;98960.41;1672699;85;22622;-60
2021/03/17 04:20:02;;;;;;;5.55;3.62;;;;;;;22.17;43.60;98958.66;1659987;85;22469;-60
2021/03/17 04:22:29;;;;;;;4.87;3.67;;;;;;;22.17;43.55;98963.62;1673738;85;21253;-60
2021/03/17 04:24:55;;;;;;;4.37;3.10;;;;;;;22.16;43.58;98959.83;1677956;84;22218;-60
2021/03/17 04:27:22;;;;;;;4.97;3.50;;;;;;;22.16;43.57;98958.44;1662159;85;21285;-60
2021/03/17 04:30:11;;;;;;;5.58;3.30;;;;;;;22.20;43.60;98966.22;1657075;85;21529;-61
2021/03/17 04:32:42;;;;;;;4.78;3.37;;;;;;;22.23;43.57;98965.50;1641800;85;21259;-60
2021/03/17 04:35:09;;;;;;;4.58;3.12;;;;;;;22.25;43.48;98963.13;1642276;85;21196;-60
2021/03/17 04:37:37;;;;;;;4.95;3.85;;;;;;;22.25;43.45;98966.70;1621720;87;22209;-60
2021/03/17 04:40:05;;;;;;;4.45;3.30;;;;;;;22.24;43.45;98965.69;1621476;86;21661;-60
2021/03/17 04:42:31;;;;;;;4.80;3.50;;;;;;;22.25;43.45;98965.91;1642113;85;21165;-60
2021/03/17 04:44:58;;;;;;;5.30;3.47;;;;;;;;;;1626777;86;21177;-60
2021/03/17 04:47:25;;;;;;;5.55;3.77;;;;;;;22.30;43.42;98962.82;1642064;85;21177;-60
2021/03/17 04:49:51;;;;;;;5.53;3.90;;;;;;;22.32;43.40;98965.42;1642925;85;21569;-60
2021/03/17 04:52:18;;;;;;;5.22;3.75;;;;;;;22.33;43.37;98962.88;1643682;85;21548;-60
2021/03/17 04:54:45;;;;;;;6.03;3.92;;;;;;;22.32;43.35;98960.45;1641357;85;21604;-60
2021/03/17 04:57:14;;;;;;;5.00;3.75;;;;;;;22.32;43.35;98959.08;1621011;86;21160;-60
2021/03/17 04:59:41;;;;;;;5.75;3.90;;;;;;;22.35;43.33;98960.31;1642315;85;21256;-60
2021/03/17 05:02:10;;;;;;;5.58;4.03;;;;;;;22.39;43.31;98970.86;1642894;85;23276;-60
2021/03/17 05:04:38;;;;;;;6.47;4.37;;;;;;;22.41;43.28;98972.66;1642478;85;21574;-60
2021/03/17 05:07:04;;;;;;;5.55;3.72;;;;;;;22.40;43.26;98969.70;1642084;85;21259;-60
2021/03/17 05:09:31;;;;;;;5.40;3.87;;;;;;;22.38;43.23;98968.67;1643415;85;21147;-60
2021/03/17 05:11:57;;;;;;;5.45;3.90;;;;;;;22.38;43.25;98960.37;1627317;86;21528;-59
2021/03/17 05:14:24;;;;;;;5.87;4.00;;;;;;;22.40;43.24;98960.80;1642500;85;21300;-58
2021/03/17 05:16:51;;;;;;;5.65;3.90;;;;;;;22.43;43.22;98968.36;1644079;85;21228;-60
2021/03/17 05:19:17;;;;;;;6.00;3.90;;;;;;;22.45;43.18;98969.39;1642823;85;21117;-60
2021/03/17 05:21:43;;;;;;;5.55;3.60;;;;;;;22.45;43.17;98974.92;1627098;86;21095;-61
2021/03/17 05:24:13;;;;;;;5.65;3.87;;;;;;;22.45;43.15;98966.61;1642781;85;21597;-61
2021/03/17 05:26:39;;;;;;;6.08;3.85;;;;;;;22.45;43.16;98975.70;1625892;86;22130;-62
2021/03/17 05:29:06;;;;;;;6.92;4.12;;;;;;;22.48;43.16;98974.97;1642139;85;21934;-61
2021/03/17 05:31:34;;;;;;;6.78;4.10;;;;;;;22.51;43.14;98978.38;1640078;85;21592;-60
2021/03/17 05:34:00;;;;;;;6.08;3.65;;;;;;;22.52;43.09;98981.95;1632632;86;21225;-63
2021/03/17 05:36:27;;;;;;;5.25;3.20;;;;;;;22.52;43.13;98978.59;1632690;86;21647;-60
2021/03/17 05:38:54;;;;;;;6.33;3.45;;;;;;;22.54;43.13;98993.44;1633593;86;21305;-60
2021/03/17 05:41:20;;;;;;;5.35;3.17;;;;;;;22.57;43.11;98986.59;1630264;86;21245;-59
2021/03/17 05:43:46;;;;;;;4.65;2.92;;;;;;;22.61;43.06;98995.75;1633584;86;21173;-61
2021/03/17 05:46:13;;;;;;;4.62;3.20;;;;;;;22.63;43.01;98996.16;1634364;86;21224;-63
2021/03/17 05:48:39;;;;;;;5.03;2.87;;;;;;;22.65;42.95;98997.19;1633684;86;21229;-62
2021/03/17 05:51:06;;;;;;;4.45;2.47;;;;;;;22.65;42.87;99003.53;1663269;84;21225;-62
2021/03/17 05:53:32;;;;;;;3.40;2.20;;;;;;;22.65;42.82;99003.53;1598170;88;21140;-60
2021/03/17 05:56:00;;;;;;;3.72;2.10;;;;;;;22.66;42.76;99007.88;1613032;87;21237;-61
2021/03/17 05:58:27;;;;;;;4.30;2.42;;;;;;;22.71;42.65;99010.36;1613856;87;21532;-63
2021/03/17 06:00:53;;;;;;;6.15;2.47;;;;;;;22.75;42.55;99011.20;1631940;86;21212;-63
2021/03/17 06:03:21;;;;;;;5.00;2.60;;;;;;;22.77;42.48;99008.07;1632048;86;21468;-62
2021/03/17 06:05:47;;;;;;;6.85;2.58;;;;;;;22.79;42.40;99020.19;1628364;85;25205;-59
2021/03/17 06:08:17;;;;;;;4.28;2.87;;;;;;;22.78;42.35;99021.35;1601779;87;21456;-63
2021/03/17 06:10:43;;;;;;;5.60;3.35;;;;;;;22.76;42.30;99022.52;1621910;87;21212;-63
2021/03/17 06:13:11;;;;;;;6.22;2.83;;;;;;;22.78;42.35;99030.47;1616122;87;21198;-60
2021/03/17 06:15:45;;;;;;;7.37;2.90;;;;;;;22.80;42.37;99030.08;1592168;88;21686;-59
2021/03/17 06:18:17;;;;;;;4.95;2.35;;;;;;;22.81;42.40;99027.52;1614342;87;21228;-61
2021/03/17 06:20:44;;;;;;;4.97;2.17;;;;;;;22.85;42.31;99029.76;1611947;87;21298;-62
2021/03/17 06:23:12;;;;;;;3.12;2.20;;;;;;;22.86;42.09;99034.14;1588827;88;21626;-61
2021/03/17 06:25:39;;;;;;;3.05;1.90;;;;;;;22.84;41.91;99034.50;1613712;87;21184;-60
2021/03/17 06:28:06;;;;;;;3.35;2.77;;;;;;;22.86;41.74;99035.52;1610718;87;22793;-63
2021/03/17 06:30:33;;;;;;;3.47;2.00;;;;;;;22.87;41.53;99037.94;1594027;88;21282;-62
2021/03/17 06:32:59;;;;;;;3.27;1.80;;;;;;;22.89;41.35;99042.50;1623760;86;21210;-59
2021/03/17 06:35:26;;;;;;;5.15;2.15;;;;;;;22.89;41.27;99041.11;1626740;86;21252;-61
2021/03/17 06:37:53;;;;;;;2.98;1.57;;;;;;;22.89;41.25;99043.89;1622333;86;21708;-61
2021/03/17 06:40:24;;;;;;;2.70;1.82;;;;;;;22.89;41.26;99047.24;1623712;86;21581;-62
2021/03/17 06:42:52;;;;;;;3.10;1.92;;;;;;;22.89;41.28;99041.11;1626845;86;21184;-62
2021/03/17 06:45:40;;;;;;;4.83;2.12;;;;;;;22.90;41.34;99046.88;1650132;85;21200;-62
2021/03/17 06:48:25;;;;;;;3.17;2.02;;;;;;;22.94;41.42;99050.50;1606235;88;21245;-62
2021/03/17 06:51:08;;;;;;;4.60;2.47;;;;;;;22.97;41.43;99046.16;1623396;86;21198;-62
2021/03/17 06:53:47;;;;;;;4.28;2.40;;;;;;;22.97;41.51;99052.52;1629216;86;21295;-62
2021/03/17 06:56:32;;;;;;;4.05;2.08;;;;;;;22.95;41.60;99047.95;1601203;88;21219;-62
2021/03/17 06:59:07;;;;;;;5.22;1.92;;;;;;;22.97;41.72;99054.48;1622185;86;21253;-63
2021/03/17 07:01:46;;;;;;;3.27;2.08;;;;;;;23.01;41.82;99049.78;1624986;86;21184;-63
2021/03/17 07:04:14;;;;;;;3.95;2.20;;;;;;;23.04;41.86;99061.53;1624658;86;21183;-61
2021/03/17 07:06:46;;;;;;;5.37;2.25;;;;;;;23.04;41.91;99064.31;1627277;86;21667;-63
2021/03/17 07:09:24;;;;;;;4.22;1.87;;;;;;;23.04;41.95;99056.76;1624805;86;21202;-63
2021/03/17 07:11:53;;;;;;;4.92;2.17;;;;;;;23.03;42.01;99057.16;1621431;86;21253;-58
2021/03/17 07:14:26;;;;;;;4.00;2.10;;;;;;;23.04;42.08;99058.15;1629246;86;21270;-60
2021/03/17 07:16:52;;;;;;;4.08;2.45;;;;;;;23.05;42.14;99061.72;1622815;86;21182;-61
2021/03/17 07:19:39;;;;;;;6.20;2.20;;;;;;;23.08;42.18;99060.41;1626604;86;21231;-62
2021/03/17 07:22:12;;;;;;;3.05;1.92;;;;;;;23.07;42.19;99057.42;1625888;86;21192;-63
2021/03/17 07:24:42;;;;;;;3.37;2.08;;;;;;;23.06;42.23;99060.55;1623370;86;21228;-63
2021/03/17 07:27:20;;;;;;;4.17;2.52;;;;;;;23.04;42.27;99061.53;1625905;86;21672;-63
2021/03/17 07:30:08;;;;;;;3.22;2.27;;;;;;;23.04;42.29;99055.37;1623208;86;21245;-63
2021/03/17 07:33:00;;;;;;;4.67;2.30;;;;;;;23.07;42.36;99059.39;1605511;88;22937;-62
2021/03/17 07:35:35;;;;;;;3.92;2.27;;;;;;;23.08;42.37;99063.19;1620379;87;21189;-61
2021/03/17 07:38:10;;;;;;;2.33;1.25;;;;;;;23.07;42.38;99061.58;1620978;87;21287;-61
2021/03/17 07:40:45;;;;;;;4.28;2.12;;;;;;;23.07;42.40;99076.84;1619072;87;21163;-62
2021/03/17 07:43:13;;;;;;;4.78;1.75;;;;;;;23.08;42.46;99072.09;1644779;85;21210;-61
2021/03/17 07:45:40;;;;;;;5.25;2.00;;;;;;;23.09;42.49;99073.08;1600858;88;23178;-62
2021/03/17 07:48:29;;;;;;;2.75;1.90;;;;;;;23.13;42.51;99078.67;1614951;87;21421;-61
2021/03/17 07:50:56;;;;;;;5.00;2.80;;;;;;;23.14;42.54;99076.92;1625997;86;21222;-61
2021/03/17 07:53:26;;;;;;;3.65;1.95;;;;;;;23.12;42.60;99076.52;1679903;83;21671;-64
2021/03/17 07:55:56;;;;;;;3.02;1.90;;;;;;;23.12;42.67;99081.26;1654423;85;45540;-62
2021/03/17 07:58:23;;;;;;;4.20;2.75;;;;;;;23.13;42.74;99082.83;1678454;83;22204;-61
2021/03/17 08:00:50;;;;;;;3.47;1.95;;;;;;;23.14;42.77;99078.30;1680594;83;21208;-61
2021/03/17 08:03:16;;;;;;;4.20;2.00;;;;;;;23.17;42.78;99075.36;1679189;83;21177;-61
2021/03/17 08:05:43;;;;;;;3.67;2.00;;;;;;;23.18;42.80;99074.19;1686677;83;21176;-60
2021/03/17 08:08:10;;;;;;;4.83;1.77;;;;;;;23.17;42.83;99081.70;1685707;83;21261;-62
2021/03/17 08:10:39;;;;;;;3.15;1.87;;;;;;;23.17;42.91;99080.32;1683648;83;22097;-62
2021/03/17 08:13:07;;;;;;;3.12;1.72;;;;;;;23.18;42.93;99087.47;1682321;83;21147;-61
2021/03/17 08:15:33;;;;;;;2.92;1.70;;;;;;;23.20;42.91;99088.50;1666905;84;21569;-62
2021/03/17 08:18:00;;;;;;;4.65;1.80;;;;;;;23.21;42.96;99092.88;1685967;83;21250;-62
2021/03/17 08:20:28;;;;;;;2.90;1.70;;;;;;;23.20;42.99;99087.91;1683588;83;21173;-59
2021/03/17 08:22:56;;;;;;;3.90;1.55;;;;;;;23.19;43.05;99090.47;1684931;83;22392;-60
2021/03/17 08:25:42;;;;;;;3.92;2.00;;;;;;;23.19;43.12;99096.60;1682554;83;21208;-61
2021/03/17 08:28:23;;;;;;;2.37;1.77;;;;;;;23.19;43.12;99092.44;1680425;83;21280;-60
2021/03/17 08:30:52;;;;;;;3.42;1.42;;;;;;;23.20;43.11;99089.30;1682000;83;21728;-61
2021/03/17 08:33:39;;;;;;;2.17;1.55;;;;;;;23.21;43.10;99088.72;1683077;83;21195;-62
2021/03/17 08:36:15;;;;;;;2.75;1.52;;;;;;;23.19;43.16;99089.08;1670908;83;22103;-61
2021/03/17 08:38:58;;;;;;;2.20;1.40;;;;;;;23.17;43.26;99095.58;1682064;83;21168;-60
2021/03/17 08:41:44;;;;;;;3.08;1.42;;;;;;;23.15;43.32;99091.01;1678674;83;21580;-63
2021/03/17 08:44:20;;;;;;;2.83;2.00;;;;;;;23.18;43.38;99100.55;1678690;83;21168;-62
2021/03/17 08:46:46;;;;;;;3.30;1.82;;;;;;;23.17;43.42;99103.91;1677073;83;21214;-60
2021/03/17 08:49:19;;;;;;;2.87;1.17;;;;;;;23.17;43.53;99110.03;1671072;83;22231;-64
2021/03/17 08:51:51;;;;;;;3.42;1.87;;;;;;;23.15;43.62;99113.79;1643566;85;21279;-63
2021/03/17 08:54:44;;;;;;;1.77;1.35;;;;;;;23.12;43.71;99102.87;1647751;85;21181;-63
2021/03/17 08:57:11;;;;;;;2.42;1.30;;;;;;;23.13;43.77;99113.34;1648462;85;21246;-62
2021/03/17 09:00:01;;;;;;;3.17;1.70;;;;;;;23.14;43.77;99116.34;1649967;85;21549;-60
2021/03/17 09:02:33;;;;;;;5.70;2.00;;;;;;;23.14;43.80;99118.53;1652614;85;21236;-62
2021/03/17 09:05:02;;;;;;;3.42;1.80;;;;;;;23.12;43.91;99116.73;1648939;85;21276;-63
2021/03/17 09:07:31;;;;;;;3.15;1.30;;;;;;;23.11;44.03;99118.48;1651527;85;21132;-61
2021/03/17 09:12:57;;;;;;;2.30;1.40;;;;;;;23.12;44.15;99123.67;1636350;86;21152;-60
2021/03/17 09:15:24;;;;;;;6.12;1.42;;;;;;;23.15;44.15;99124.30;1638477;86;21225;-64
2021/03/17 09:17:57;;;;;;;1.85;1.30;;;;;;;23.16;44.15;99131.45;1616629;88;21201;-62
2021/03/17 09:20:43;;;;;;;4.22;1.72;;;;;;;23.16;44.21;99129.27;1654225;85;21224;-65
2021/03/17 09:23:21;;;;;;;2.95;1.30;;;;;;;23.14;44.31;99131.59;1653156;85;21153;-63
2021/03/17 09:25:56;;;;;;;3.60;1.42;;;;;;;23.14;44.37;99134.38;1661094;85;21089;-62
2021/03/17 09:28:37;;;;;;;2.37;1.45;;;;;;;23.16;44.40;99130.66;1658271;85;21294;-61
2021/03/17 09:31:06;;;;;;;2.15;1.40;;;;;;;23.18;44.42;99140.77;1655373;85;21243;-64
2021/03/17 09:33:41;;;;;;;2.83;1.52;;;;;;;23.17;44.46;99135.00;1658201;85;21377;-61
2021/03/17 09:36:14;;;;;;;1.80;1.22;;;;;;;23.16;44.53;99125.91;1631464;86;21125;-61
2021/03/17 09:38:47;;;;;;;2.75;1.42;;;;;;;23.16;44.58;99132.04;1611084;87;21177;-62
2021/03/17 09:41:31;;;;;;;3.62;1.45;;;;;;;23.16;44.59;99141.17;1653711;85;21311;-66
2021/03/17 09:44:23;;;;;;;1.70;0.98;;;;;;;23.17;44.55;99139.97;1664995;85;21216;-62
2021/03/17 09:46:52;;;;;;;2.00;1.30;;;;;;;23.19;44.46;99141.80;1603209;88;21184;-63
2021/03/17 09:49:24;;;;;;;2.87;1.20;;;;;;;23.19;44.45;99145.95;1606299;88;21630;-64
2021/03/17 09:52:01;;;;;;;3.22;1.37;;;;;;;23.19;44.50;99149.31;1603496;88;21138;-63
2021/03/17 09:54:31;;;;;;;1.50;1.00;;;;;;;23.18;44.58;99150.48;1583984;88;21257;-60
2021/03/17 09:57:00;;;;;;;2.92;1.07;;;;;;;23.18;44.59;99153.26;1587441;88;21222;-60
2021/03/17 09:59:46;;;;;;;1.70;1.17;;;;;;;23.20;44.54;99162.83;1583316;89;21251;-66
2021/03/17 10:02:22;;;;;;;2.58;1.57;;;;;;;23.22;44.51;99155.49;1584848;89;21214;-66
2021/03/17 10:04:51;;;;;;;3.50;1.32;;;;;;;23.23;44.46;99164.04;1589493;88;21212;-61
2021/03/17 10:07:28;;;;;;;1.80;1.07;;;;;;;23.23;44.51;99169.59;1589599;89;21650;-62
2021/03/17 10:09:56;;;;;;;3.70;1.30;;;;;;;23.23;44.54;99170.97;1583267;89;21638;-61
2021/03/17 10:12:29;;;;;;;2.12;1.40;;;;;;;23.22;44.42;99172.95;1553806;90;21168;-61
2021/03/17 10:15:24;;;;;;;3.00;1.15;;;;;;;23.23;44.28;99171.78;1569978;90;21239;-61
2021/03/17 10:17:53;;;;;;;1.70;1.20;;;;;;;23.22;44.12;99177.11;1564371;91;21242;-64
2021/03/17 10:20:22;;;;;;;2.85;1.32;;;;;;;23.18;43.98;99177.64;1562572;90;21249;-63
2021/03/17 10:22:50;;;;;;;1.75;1.10;;;;;;;23.17;43.91;99181.58;1570081;91;21333;-64
2021/03/17 10:25:20;;;;;;;1.50;0.90;;;;;;;23.15;43.87;99189.50;1578864;89;21672;-63
2021/03/17 10:27:49;;;;;;;4.75;2.17;;;;;;;23.16;43.89;99187.53;1568259;91;21207;-66
2021/03/17 10:30:18;;;;;;;1.90;1.17;;;;;;;23.16;43.76;99188.33;1604232;88;21260;-64
2021/03/17 10:32:47;;;;;;;1.95;1.25;;;;;;;23.16;43.39;99192.49;1615311;88;21206;-64
2021/03/17 10:35:16;;;;;;;1.98;0.98;;;;;;;23.14;42.90;99195.41;1607601;87;21274;-64
2021/03/17 10:37:43;;;;;;;3.40;1.10;;;;;;;23.09;42.78;99191.56;1608246;88;21824;-63
2021/03/17 10:40:24;;;;;;;3.45;1.20;;;;;;;23.08;42.80;99192.17;1607729;88;21267;-62
2021/03/17 10:42:59;;;;;;;2.37;1.10;;;;;;;23.10;42.82;99184.84;1597532;88;21279;-62
2021/03/17 10:45:35;;;;;;;2.30;1.32;;;;;;;23.12;42.82;99190.84;1608702;87;22765;-62
2021/03/17 10:48:17;;;;;;;1.80;0.88;;;;;;;23.11;42.82;99195.58;1613575;88;21266;-62
2021/03/17 10:50:44;;;;;;;3.52;1.30;;;;;;;23.07;42.87;99196.11;1613765;88;21751;-62
2021/03/17 10:53:25;;;;;;;2.92;1.47;;;;;;;23.04;42.91;99203.00;1613717;88;21222;-63
2021/03/17 10:55:54;;;;;;;2.92;1.50;;;;;;;23.02;42.97;99202.55;1609116;88;21266;-60
2021/03/17 10:58:29;;;;;;;2.15;1.15;;;;;;;23.01;43.07;99203.72;1613584;86;21242;-60
2021/03/17 11:00:58;;;;;;;7.25;1.62;;;;;;;23.01;43.10;99206.49;1614685;88;21206;-62
2021/03/17 11:03:39;;;;;;;6.00;2.95;;;;;;;22.98;43.16;99201.70;1566688;91;21280;-64
2021/03/17 11:06:22;;;;;;;3.58;1.55;;;;;;;22.94;43.23;99203.03;1614184;88;21259;-64
2021/03/17 11:09:04;;;;;;;4.53;1.52;;;;;;;22.90;43.30;99208.30;1611612;88;21266;-66
2021/03/17 11:11:32;;;;;;;4.70;2.22;;;;;;;22.88;43.37;99212.02;1610665;88;21221;-64
2021/03/17 11:13:59;;;;;;;2.85;1.50;;;;;;;22.87;43.39;99209.05;1613073;88;21725;-63
2021/03/17 11:16:29;;;;;;;3.52;1.05;;;;;;;22.85;43.44;99209.41;1609894;88;21198;-64
2021/03/17 11:18:57;;;;;;;2.92;1.37;;;;;;;22.82;43.46;99218.48;1612124;88;21238;-63
2021/03/17 11:21:34;;;;;;;2.37;1.30;;;;;;;22.79;43.53;99216.43;1610753;88;21261;-64
2021/03/17 11:24:16;;;;;;;2.87;1.30;;;;;;;22.79;43.62;99215.05;1610529;88;21213;-63
2021/03/17 11:26:43;;;;;;;1.65;1.25;;;;;;;22.80;43.67;99209.72;1613921;88;21670;-64
2021/03/17 11:29:17;;;;;;;2.70;1.45;;;;;;;22.82;43.71;99206.59;1613626;88;21239;-64
2021/03/17 11:31:44;;;;;;;2.35;1.20;;;;;;;22.82;43.72;99209.36;1608768;87;21761;-64
2021/03/17 11:34:11;;;;;;;4.12;1.40;;;;;;;22.80;43.78;99213.88;1611464;88;21247;-64
2021/03/17 11:36:38;;;;;;;1.98;0.90;;;;;;;22.80;43.85;99206.14;1609914;88;21254;-64
2021/03/17 11:39:08;;;;;;;2.95;1.22;;;;;;;22.79;43.90;99213.66;1611797;88;21756;-64
2021/03/17 11:41:35;;;;;;;1.97;0.93;;;;;;;22.80;43.95;99211.11;1611648;88;21263;-64
2021/03/17 11:44:01;;;;;;;1.98;1.12;;;;;;;22.80;43.99;99219.42;1615050;88;21243;-64
2021/03/17 11:46:27;;;;;;;4.65;1.47;;;;;;;22.78;44.00;99218.20;1610905;88;21207;-63
2021/03/17 11:48:54;;;;;;;2.60;1.00;;;;;;;22.74;44.05;99219.53;1611395;88;22185;-64
2021/03/17 11:51:21;;;;;;;3.47;1.27;;;;;;;22.73;44.12;99224.86;1595334;88;21202;-64
2021/03/17 11:53:48;;;;;;;2.42;0.93;;;;;;;22.72;44.19;99226.02;1614101;88;21247;-64
2021/03/17 11:56:15;;;;;;;2.10;1.20;;;;;;;22.72;44.24;99221.28;1612013;88;21335;-65